Wall Blake, Anguilla

5:29 AM AST on September 15, 2014 (GMT -0400)
Concordia | Change Station
CLOSE
Current Station
Personal Weather Station
Location: Saint-Martin,
Elevation: 85 ft
Nearby Weather Stations

Elev 85 ft 18.07 °N, 63.07 °W | Updated 15 seconds ago

Partly Cloudy
Partly Cloudy
80.4 °F
Feels Like 85 °F
N
3.6
Wind Variable Wind from SE
Gusts 3.6 mph

Today
High -- | Low -- °F
--% Chance of Precip.
Yesterday
High -- | Low -- °F
Precip. -- in
5:59 AM 6:14 PM
Waning Gibbous, 57% visible
Pressure 29.98 in
Visibility 6.2 miles
Clouds Few 2100 ft
Heat Index 85 °F
Dew Point 73 °F
Humidity 79%
Rainfall 0.00 in
Snow Depth Not available.
UV 0.0 out of 12
Pollen Not available.
Air Quality Not available.
Flu Activity Not available.
METAR TNCM 150900Z VRB03KT 9999 FEW021 27/23 Q1015 A2997

More Conditions Fewer Conditions

Pressure 29.98 in
Visibility 6.2 miles
Clouds Few 2100 ft
Heat Index 85 °F
Dew Point 73 °F
Humidity 79%
Rainfall 0.00 in
Snow Depth Not available.
UV 0.0 out of 12
Pollen Not available.
Air Quality Not available.
Flu Activity Not available.
METAR TNCM 150900Z VRB03KT 9999 FEW021 27/23 Q1015 A2997

More Conditions Fewer Conditions

10-Day Weather Forecast

Almanac

Astronomy

Sep. 15, 2014 Rise Set
Actual Time 5:59 AM AST 6:14 PM AST
Civil Twilight 5:38 AM AST 6:36 PM AST
Nautical Twilight 5:12 AM AST 7:01 PM AST
Astronomical Twilight 4:47 AM AST 7:27 PM AST
Moon 11:41 PM AST 12:07 PM AST
Length of Visible Light 12h 58m
Length of Day
12h 14m
Tomorrow will be 1m 1s shorter.
Waning Gibbous, 57% of the Moon is Illuminated
Today
Waning Gibbous
Sep 15
Last Quarter
Sep 24
New
Oct 1
First Quarter
Oct 8
Full

Yesterday's Extremes

Country Highs Country Lows

Community

WunderPhotos

Upload Photos

1,753,426 photos uploaded!

Nearby

Snow Depth

Not available.

Earthquake Activity

City Distance Mag. Time & Date
No recent earthquake activity has been reported nearby.
Minimum magnitude displayed is 2.5.

Coastal Water Temperatures

Place Temperature
No Stations Reporting

Nearby Weather Stations